sensor_id;sensor_type;location;lat;lon;timestamp;pressure;altitude;pressure_sealevel;temperature;humidity
49729;BME280;66333;49.798;10.968;2023-02-22T00:00:20;98137.22;;;9.04;70.12
49729;BME280;66333;49.798;10.968;2023-02-22T00:02:55;98136.38;;;9.03;69.96
49729;BME280;66333;49.798;10.968;2023-02-22T00:05:25;98133.63;;;9.05;70.11
49729;BME280;66333;49.798;10.968;2023-02-22T00:07:53;98132.13;;;9.02;70.14
49729;BME280;66333;49.798;10.968;2023-02-22T00:10:22;98134.44;;;9.05;69.96
49729;BME280;66333;49.798;10.968;2023-02-22T00:12:51;98130.50;;;9.01;69.98
49729;BME280;66333;49.798;10.968;2023-02-22T00:15:20;98129.53;;;9.02;70.05
49729;BME280;66333;49.798;10.968;2023-02-22T00:17:53;98129.81;;;8.99;70.15
49729;BME280;66333;49.798;10.968;2023-02-22T00:20:21;98120.03;;;9.01;70.04
49729;BME280;66333;49.798;10.968;2023-02-22T00:22:49;98128.69;;;9.02;69.76
49729;BME280;66333;49.798;10.968;2023-02-22T00:25:18;98122.66;;;9.01;69.84
49729;BME280;66333;49.798;10.968;2023-02-22T00:27:45;98129.53;;;9.02;69.82
49729;BME280;66333;49.798;10.968;2023-02-22T00:30:14;98129.53;;;9.02;69.79
49729;BME280;66333;49.798;10.968;2023-02-22T00:32:43;98128.19;;;8.98;69.93
49729;BME280;66333;49.798;10.968;2023-02-22T00:35:11;98125.69;;;8.97;69.92
49729;BME280;66333;49.798;10.968;2023-02-22T00:37:37;98128.19;;;8.98;70.01
49729;BME280;66333;49.798;10.968;2023-02-22T00:40:07;98126.81;;;8.94;70.06
49729;BME280;66333;49.798;10.968;2023-02-22T00:42:33;98127.38;;;8.98;69.88
49729;BME280;66333;49.798;10.968;2023-02-22T00:45:00;98125.84;;;8.95;69.93
49729;BME280;66333;49.798;10.968;2023-02-22T00:47:27;98127.63;;;8.95;69.91
49729;BME280;66333;49.798;10.968;2023-02-22T00:49:54;98122.56;;;8.93;69.92
49729;BME280;66333;49.798;10.968;2023-02-22T00:52:22;98120.63;;;8.95;69.89
49729;BME280;66333;49.798;10.968;2023-02-22T00:54:48;98113.91;;;8.93;69.84
49729;BME280;66333;49.798;10.968;2023-02-22T00:57:15;98114.88;;;8.92;69.87
49729;BME280;66333;49.798;10.968;2023-02-22T00:59:41;98107.56;;;8.95;69.71
49729;BME280;66333;49.798;10.968;2023-02-22T01:02:07;98107.19;;;8.90;69.97
49729;BME280;66333;49.798;10.968;2023-02-22T01:04:34;98118.31;;;8.92;69.67
49729;BME280;66333;49.798;10.968;2023-02-22T01:07:00;98109.78;;;8.90;69.79
49729;BME280;66333;49.798;10.968;2023-02-22T01:09:28;98113.38;;;8.89;69.95
49729;BME280;66333;49.798;10.968;2023-02-22T01:11:55;98108.81;;;8.91;69.72
49729;BME280;66333;49.798;10.968;2023-02-22T01:14:23;98113.38;;;8.89;69.82
49729;BME280;66333;49.798;10.968;2023-02-22T01:16:51;98103.19;;;8.86;69.94
49729;BME280;66333;49.798;10.968;2023-02-22T01:19:18;98103.06;;;8.88;69.80
49729;BME280;66333;49.798;10.968;2023-02-22T01:21:44;98095.38;;;8.86;69.79
49729;BME280;66333;49.798;10.968;2023-02-22T01:24:12;98094.69;;;8.84;69.71
49729;BME280;66333;49.798;10.968;2023-02-22T01:26:41;98094.69;;;8.84;69.96
49729;BME280;66333;49.798;10.968;2023-02-22T01:29:11;98094.69;;;8.84;69.91
49729;BME280;66333;49.798;10.968;2023-02-22T01:31:39;98087.53;;;8.86;69.81
49729;BME280;66333;49.798;10.968;2023-02-22T01:34:07;98085.88;;;8.85;69.93
49729;BME280;66333;49.798;10.968;2023-02-22T01:36:33;98080.66;;;8.85;69.76
49729;BME280;66333;49.798;10.968;2023-02-22T01:39:00;98080.66;;;8.85;69.77
49729;BME280;66333;49.798;10.968;2023-02-22T01:41:26;98084.09;;;8.86;69.79
49729;BME280;66333;49.798;10.968;2023-02-22T01:43:54;98080.66;;;8.85;69.76
49729;BME280;66333;49.798;10.968;2023-02-22T01:46:22;98086.84;;;8.84;69.77
49729;BME280;66333;49.798;10.968;2023-02-22T01:48:52;98091.41;;;8.82;69.88
49729;BME280;66333;49.798;10.968;2023-02-22T01:51:22;98082.59;;;8.83;69.78
49729;BME280;66333;49.798;10.968;2023-02-22T01:53:52;98084.25;;;8.84;69.67
49729;BME280;66333;49.798;10.968;2023-02-22T01:56:21;98078.34;;;8.82;69.78
49729;BME280;66333;49.798;10.968;2023-02-22T01:58:50;98077.66;;;8.80;69.82
49729;BME280;66333;49.798;10.968;2023-02-22T02:01:21;98078.34;;;8.82;69.80
49729;BME280;66333;49.798;10.968;2023-02-22T02:03:49;98074.09;;;8.81;69.80
49729;BME280;66333;49.798;10.968;2023-02-22T02:06:18;98072.41;;;8.80;69.84
49729;BME280;66333;49.798;10.968;2023-02-22T02:08:50;98070.78;;;8.79;69.81
49729;BME280;66333;49.798;10.968;2023-02-22T02:11:21;98073.28;;;8.81;69.63
49729;BME280;66333;49.798;10.968;2023-02-22T02:13:50;98066.38;;;8.80;69.71
49729;BME280;66333;49.798;10.968;2023-02-22T02:16:20;98074.38;;;8.78;69.77
49729;BME280;66333;49.798;10.968;2023-02-22T02:18:47;98069.97;;;8.79;69.53
49729;BME280;66333;49.798;10.968;2023-02-22T02:27:16;98057.06;;;8.77;69.67
49729;BME280;66333;49.798;10.968;2023-02-22T02:32:50;98055.41;;;8.76;69.77
49729;BME280;66333;49.798;10.968;2023-02-22T02:35:24;98053.91;;;8.73;69.67
49729;BME280;66333;49.798;10.968;2023-02-22T02:37:56;98048.84;;;8.72;69.78
49729;BME280;66333;49.798;10.968;2023-02-22T02:40:30;98050.50;;;8.73;69.79
49729;BME280;66333;49.798;10.968;2023-02-22T02:43:06;98042.34;;;8.76;69.61
49729;BME280;66333;49.798;10.968;2023-02-22T02:45:38;98047.19;;;8.71;69.63
49729;BME280;66333;49.798;10.968;2023-02-22T02:48:11;98043.63;;;8.72;69.61
49729;BME280;66333;49.798;10.968;2023-02-22T02:50:43;98046.25;;;8.72;69.68
49729;BME280;66333;49.798;10.968;2023-02-22T02:53:12;98041.94;;;8.71;69.62
49729;BME280;66333;49.798;10.968;2023-02-22T02:55:41;98035.09;;;8.70;69.61
49729;BME280;66333;49.798;10.968;2023-02-22T02:58:07;98033.44;;;8.69;69.57
49729;BME280;66333;49.798;10.968;2023-02-22T03:00:36;98033.19;;;8.72;69.60
49729;BME280;66333;49.798;10.968;2023-02-22T03:03:14;98035.09;;;8.70;69.55
49729;BME280;66333;49.798;10.968;2023-02-22T03:05:57;98032.31;;;8.71;69.46
49729;BME280;66333;49.798;10.968;2023-02-22T03:08:33;98033.19;;;8.72;69.33
49729;BME280;66333;49.798;10.968;2023-02-22T03:11:05;98028.22;;;8.69;69.57
49729;BME280;66333;49.798;10.968;2023-02-22T03:13:44;98024.94;;;8.67;69.59
49729;BME280;66333;49.798;10.968;2023-02-22T03:16:19;98026.59;;;8.68;69.46
49729;BME280;66333;49.798;10.968;2023-02-22T03:18:53;98029.34;;;8.66;69.57
49729;BME280;66333;49.798;10.968;2023-02-22T03:21:24;98026.06;;;8.64;69.58
49729;BME280;66333;49.798;10.968;2023-02-22T03:24:00;98023.31;;;8.66;69.54
49729;BME280;66333;49.798;10.968;2023-02-22T03:26:28;98026.88;;;8.65;69.88
49729;BME280;66333;49.798;10.968;2023-02-22T03:28:57;98030.47;;;8.64;69.51
49729;BME280;66333;49.798;10.968;2023-02-22T03:31:28;98028.53;;;8.66;69.58
49729;BME280;66333;49.798;10.968;2023-02-22T03:34:00;98028.81;;;8.63;69.52
49729;BME280;66333;49.798;10.968;2023-02-22T03:36:31;98022.47;;;8.65;69.46
49729;BME280;66333;49.798;10.968;2023-02-22T03:39:00;98020.03;;;8.64;69.50
49729;BME280;66333;49.798;10.968;2023-02-22T03:41:30;98013.97;;;8.63;69.45
49729;BME280;66333;49.798;10.968;2023-02-22T03:44:00;98025.09;;;8.65;69.43
49729;BME280;66333;49.798;10.968;2023-02-22T03:46:28;98020.03;;;8.64;69.37
49729;BME280;66333;49.798;10.968;2023-02-22T03:49:00;98016.88;;;8.60;69.55
49729;BME280;66333;49.798;10.968;2023-02-22T03:51:28;98013.13;;;8.63;69.45
49729;BME280;66333;49.798;10.968;2023-02-22T03:53:55;98020.97;;;8.63;69.31
49729;BME280;66333;49.798;10.968;2023-02-22T03:56:24;98017.53;;;8.62;69.48
49729;BME280;66333;49.798;10.968;2023-02-22T03:58:55;98021.41;;;8.58;69.64
49729;BME280;66333;49.798;10.968;2023-02-22T04:01:22;98022.25;;;8.59;69.55
49729;BME280;66333;49.798;10.968;2023-02-22T04:03:48;98021.25;;;8.60;69.48
49729;BME280;66333;49.798;10.968;2023-02-22T04:06:16;98011.78;;;8.59;69.61
49729;BME280;66333;49.798;10.968;2023-02-22T04:08:42;98018.66;;;8.60;69.56
49729;BME280;66333;49.798;10.968;2023-02-22T04:11:09;98020.59;;;8.58;69.37
49729;BME280;66333;49.798;10.968;2023-02-22T04:13:35;98024.84;;;8.59;69.40
49729;BME280;66333;49.798;10.968;2023-02-22T04:16:02;98026.78;;;8.57;69.39
49729;BME280;66333;49.798;10.968;2023-02-22T04:18:28;98023.22;;;8.58;69.39
49729;BME280;66333;49.798;10.968;2023-02-22T04:20:54;98029.41;;;8.57;69.45
49729;BME280;66333;49.798;10.968;2023-02-22T04:23:22;98028.72;;;8.55;69.42
49729;BME280;66333;49.798;10.968;2023-02-22T04:25:49;98021.72;;;8.55;69.48
49729;BME280;66333;49.798;10.968;2023-02-22T04:28:15;98025.16;;;8.56;69.31
49729;BME280;66333;49.798;10.968;2023-02-22T04:30:42;98022.81;;;8.53;69.38
49729;BME280;66333;49.798;10.968;2023-02-22T04:33:10;98017.59;;;8.53;69.61
49729;BME280;66333;49.798;10.968;2023-02-22T04:35:36;98023.63;;;8.53;69.43
49729;BME280;66333;49.798;10.968;2023-02-22T04:38:03;98017.59;;;8.53;69.46
49729;BME280;66333;49.798;10.968;2023-02-22T04:40:31;98015.94;;;8.52;69.39
49729;BME280;66333;49.798;10.968;2023-02-22T04:42:57;98024.44;;;8.54;69.29
49729;BME280;66333;49.798;10.968;2023-02-22T04:45:24;98007.44;;;8.50;69.37
49729;BME280;66333;49.798;10.968;2023-02-22T04:47:50;98014.00;;;8.54;69.31
49729;BME280;66333;49.798;10.968;2023-02-22T04:50:17;98015.13;;;8.51;69.33
49729;BME280;66333;49.798;10.968;2023-02-22T04:52:43;98011.84;;;8.49;69.44
49729;BME280;66333;49.798;10.968;2023-02-22T04:55:11;98015.13;;;8.51;69.32
49729;BME280;66333;49.798;10.968;2023-02-22T04:57:39;98011.03;;;8.48;69.31
49729;BME280;66333;49.798;10.968;2023-02-22T05:00:07;98002.22;;;8.50;69.21
49729;BME280;66333;49.798;10.968;2023-02-22T05:02:34;98003.03;;;8.50;69.20
49729;BME280;66333;49.798;10.968;2023-02-22T05:05:01;98002.53;;;8.46;69.24
49729;BME280;66333;49.798;10.968;2023-02-22T05:07:27;98002.53;;;8.46;69.31
49729;BME280;66333;49.798;10.968;2023-02-22T05:09:53;97997.31;;;8.46;69.34
49729;BME280;66333;49.798;10.968;2023-02-22T05:12:20;97999.22;;;8.44;69.40
49729;BME280;66333;49.798;10.968;2023-02-22T05:14:48;97998.94;;;8.47;69.08
49729;BME280;66333;49.798;10.968;2023-02-22T05:17:14;97991.25;;;8.46;69.52
49729;BME280;66333;49.798;10.968;2023-02-22T05:19:40;97998.25;;;8.45;69.16
49729;BME280;66333;49.798;10.968;2023-02-22T05:22:07;97999.22;;;8.44;69.16
49729;BME280;66333;49.798;10.968;2023-02-22T05:24:33;97994.97;;;8.43;69.16
49729;BME280;66333;49.798;10.968;2023-02-22T05:27:00;98001.97;;;8.43;69.19
49729;BME280;66333;49.798;10.968;2023-02-22T05:29:26;97995.94;;;8.42;69.03
49729;BME280;66333;49.798;10.968;2023-02-22T05:31:54;97992.34;;;8.43;69.13
49729;BME280;66333;49.798;10.968;2023-02-22T05:34:22;97984.66;;;8.42;69.04
49729;BME280;66333;49.798;10.968;2023-02-22T05:36:48;97993.31;;;8.42;69.05
49729;BME280;66333;49.798;10.968;2023-02-22T05:39:15;97993.31;;;8.42;69.14
49729;BME280;66333;49.798;10.968;2023-02-22T05:41:41;97985.63;;;8.41;69.05
49729;BME280;66333;49.798;10.968;2023-02-22T05:44:07;97979.44;;;8.42;69.00
49729;BME280;66333;49.798;10.968;2023-02-22T05:46:34;97979.59;;;8.40;69.24
49729;BME280;66333;49.798;10.968;2023-02-22T05:49:02;97980.56;;;8.39;69.13
49729;BME280;66333;49.798;10.968;2023-02-22T05:51:28;97973.72;;;8.38;69.25
49729;BME280;66333;49.798;10.968;2023-02-22T05:53:55;97967.78;;;8.36;69.10
49729;BME280;66333;49.798;10.968;2023-02-22T05:56:23;97972.03;;;8.37;69.00
49729;BME280;66333;49.798;10.968;2023-02-22T05:58:50;97977.25;;;8.37;69.01
49729;BME280;66333;49.798;10.968;2023-02-22T06:01:16;97966.81;;;8.37;68.96
49729;BME280;66333;49.798;10.968;2023-02-22T06:03:45;97979.19;;;8.35;68.96
49729;BME280;66333;49.798;10.968;2023-02-22T06:06:13;97972.31;;;8.34;68.95
49729;BME280;66333;49.798;10.968;2023-02-22T06:08:40;97974.66;;;8.37;68.92
49729;BME280;66333;49.798;10.968;2023-02-22T06:11:06;97979.19;;;8.35;68.94
49729;BME280;66333;49.798;10.968;2023-02-22T06:13:33;97974.91;;;8.34;69.15
49729;BME280;66333;49.798;10.968;2023-02-22T06:16:00;97975.06;;;8.33;68.97
49729;BME280;66333;49.798;10.968;2023-02-22T06:18:26;97978.50;;;8.33;68.77
49729;BME280;66333;49.798;10.968;2023-02-22T06:20:55;97970.97;;;8.30;68.80
49729;BME280;66333;49.798;10.968;2023-02-22T06:23:23;97981.09;;;8.33;68.81
49729;BME280;66333;49.798;10.968;2023-02-22T06:25:49;97977.84;;;8.31;68.93
49729;BME280;66333;49.798;10.968;2023-02-22T06:28:15;97973.59;;;8.30;68.87
49729;BME280;66333;49.798;10.968;2023-02-22T06:30:42;97976.19;;;8.30;68.85
49729;BME280;66333;49.798;10.968;2023-02-22T06:33:08;97977.84;;;8.31;68.63
49729;BME280;66333;49.798;10.968;2023-02-22T06:35:35;97983.88;;;8.32;68.60
49729;BME280;66333;49.798;10.968;2023-02-22T06:38:02;97978.91;;;8.29;68.78
49729;BME280;66333;49.798;10.968;2023-02-22T06:40:30;97977.28;;;8.28;68.87
49729;BME280;66333;49.798;10.968;2023-02-22T06:42:56;97977.28;;;8.28;68.82
49729;BME280;66333;49.798;10.968;2023-02-22T06:45:24;97980.03;;;8.26;68.43
49729;BME280;66333;49.798;10.968;2023-02-22T06:47:50;97981.97;;;8.24;68.69
49729;BME280;66333;49.798;10.968;2023-02-22T06:50:20;97981.69;;;8.27;68.73
49729;BME280;66333;49.798;10.968;2023-02-22T06:52:46;97984.44;;;8.26;68.66
49729;BME280;66333;49.798;10.968;2023-02-22T06:55:16;97988.69;;;8.27;68.54
49729;BME280;66333;49.798;10.968;2023-02-22T06:57:44;97987.19;;;8.24;68.77
49729;BME280;66333;49.798;10.968;2023-02-22T07:00:11;97983.88;;;8.32;68.24
49729;BME280;66333;49.798;10.968;2023-02-22T07:02:38;97991.84;;;8.30;68.49
49729;BME280;66333;49.798;10.968;2023-02-22T07:05:04;97990.22;;;8.29;68.51
49729;BME280;66333;49.798;10.968;2023-02-22T07:07:31;97988.44;;;8.30;68.54
49729;BME280;66333;49.798;10.968;2023-02-22T07:09:57;97988.84;;;8.25;68.76
49729;BME280;66333;49.798;10.968;2023-02-22T07:12:24;97988.53;;;8.28;68.62
49729;BME280;66333;49.798;10.968;2023-02-22T07:14:54;97986.09;;;8.27;68.50
49729;BME280;66333;49.798;10.968;2023-02-22T07:17:21;97983.63;;;8.25;68.33
49729;BME280;66333;49.798;10.968;2023-02-22T07:19:47;97977.72;;;8.23;68.69
49729;BME280;66333;49.798;10.968;2023-02-22T07:22:14;97979.28;;;8.16;68.14
49729;BME280;66333;49.798;10.968;2023-02-22T07:24:41;97975.72;;;8.07;65.11
49729;BME280;66333;49.798;10.968;2023-02-22T07:27:08;97979.88;;;8.00;64.94
49729;BME280;66333;49.798;10.968;2023-02-22T07:29:34;97980.69;;;8.01;65.81
49729;BME280;66333;49.798;10.968;2023-02-22T07:32:02;97978.50;;;8.06;65.35
49729;BME280;66333;49.798;10.968;2023-02-22T07:34:29;97975.22;;;8.04;66.85
49729;BME280;66333;49.798;10.968;2023-02-22T07:36:55;97973.69;;;8.01;66.40
49729;BME280;66333;49.798;10.968;2023-02-22T07:39:22;97975.22;;;8.04;66.76
49729;BME280;66333;49.798;10.968;2023-02-22T07:41:48;97973.53;;;8.03;66.93
49729;BME280;66333;49.798;10.968;2023-02-22T07:44:15;97970.00;;;8.04;66.88
49729;BME280;66333;49.798;10.968;2023-02-22T07:46:45;97968.31;;;8.03;66.92
49729;BME280;66333;49.798;10.968;2023-02-22T07:49:13;97970.81;;;8.04;67.27
49729;BME280;66333;49.798;10.968;2023-02-22T07:51:40;97961.19;;;8.05;67.20
49729;BME280;66333;49.798;10.968;2023-02-22T07:54:06;97980.69;;;8.01;67.54
49729;BME280;66333;49.798;10.968;2023-02-22T07:56:32;97970.94;;;8.03;67.35
49729;BME280;66333;49.798;10.968;2023-02-22T07:58:59;97973.53;;;8.03;67.47
49729;BME280;66333;49.798;10.968;2023-02-22T08:01:26;97970.81;;;8.04;67.48
49729;BME280;66333;49.798;10.968;2023-02-22T08:03:53;97972.31;;;8.07;67.49
49729;BME280;66333;49.798;10.968;2023-02-22T08:06:21;97970.00;;;8.04;67.52
49729;BME280;66333;49.798;10.968;2023-02-22T08:08:50;97970.81;;;8.04;67.70
49729;BME280;66333;49.798;10.968;2023-02-22T08:11:17;97973.28;;;8.06;67.61
49729;BME280;66333;49.798;10.968;2023-02-22T08:13:45;97966.41;;;8.05;67.71
49729;BME280;66333;49.798;10.968;2023-02-22T08:16:12;97971.63;;;8.05;67.77
49729;BME280;66333;49.798;10.968;2023-02-22T08:18:39;97974.91;;;8.07;67.54
49729;BME280;66333;49.798;10.968;2023-02-22T08:21:06;97976.56;;;8.08;67.85
49729;BME280;66333;49.798;10.968;2023-02-22T08:23:34;97974.91;;;8.07;67.84
49729;BME280;66333;49.798;10.968;2023-02-22T08:26:06;97977.53;;;8.07;67.94
49729;BME280;66333;49.798;10.968;2023-02-22T08:28:33;97974.25;;;8.05;67.85
49729;BME280;66333;49.798;10.968;2023-02-22T08:31:00;97972.59;;;8.04;68.15
49729;BME280;66333;49.798;10.968;2023-02-22T08:33:26;97982.06;;;8.05;68.09
49729;BME280;66333;49.798;10.968;2023-02-22T08:35:53;97987.28;;;8.05;68.05
49729;BME280;66333;49.798;10.968;2023-02-22T08:38:23;97990.56;;;8.07;68.10
49729;BME280;66333;49.798;10.968;2023-02-22T08:40:51;97980.44;;;8.04;68.22
49729;BME280;66333;49.798;10.968;2023-02-22T08:43:19;97988.94;;;8.06;68.23
49729;BME280;66333;49.798;10.968;2023-02-22T08:45:47;97985.34;;;8.07;68.24
49729;BME280;66333;49.798;10.968;2023-02-22T08:48:14;97980.28;;;8.05;68.54
49729;BME280;66333;49.798;10.968;2023-02-22T08:50:41;97982.75;;;8.07;68.14
49729;BME280;66333;49.798;10.968;2023-02-22T08:53:09;97988.94;;;8.06;68.26
49729;BME280;66333;49.798;10.968;2023-02-22T08:55:38;97984.53;;;8.06;68.42
49729;BME280;66333;49.798;10.968;2023-02-22T08:58:06;97976.84;;;8.05;68.36
49729;BME280;66333;49.798;10.968;2023-02-22T09:00:35;97981.78;;;8.08;68.39
49729;BME280;66333;49.798;10.968;2023-02-22T09:03:03;97980.13;;;8.07;68.45
49729;BME280;66333;49.798;10.968;2023-02-22T09:05:31;97980.13;;;8.07;68.57
49729;BME280;66333;49.798;10.968;2023-02-22T09:07:59;97976.56;;;8.08;68.67
49729;BME280;66333;49.798;10.968;2023-02-22T09:10:28;97978.34;;;8.07;68.44
49729;BME280;66333;49.798;10.968;2023-02-22T09:12:55;97975.59;;;8.09;68.59
49729;BME280;66333;49.798;10.968;2023-02-22T09:15:24;97976.56;;;8.08;68.58
49729;BME280;66333;49.798;10.968;2023-02-22T09:17:51;97976.25;;;8.11;68.41
49729;BME280;66333;49.798;10.968;2023-02-22T09:20:19;97974.34;;;8.13;68.42
49729;BME280;66333;49.798;10.968;2023-02-22T09:22:48;97977.94;;;8.12;68.52
49729;BME280;66333;49.798;10.968;2023-02-22T09:25:16;97977.94;;;8.12;68.35
49729;BME280;66333;49.798;10.968;2023-02-22T09:27:47;97975.16;;;8.13;68.37
49729;BME280;66333;49.798;10.968;2023-02-22T09:30:21;97971.75;;;8.13;68.50
49729;BME280;66333;49.798;10.968;2023-02-22T09:32:52;97978.44;;;8.15;68.45
49729;BME280;66333;49.798;10.968;2023-02-22T09:35:20;97971.75;;;8.13;68.65
49729;BME280;66333;49.798;10.968;2023-02-22T09:37:52;97972.41;;;8.15;68.71
49729;BME280;66333;49.798;10.968;2023-02-22T09:40:19;97976.00;;;8.14;68.55
49729;BME280;66333;49.798;10.968;2023-02-22T09:43:01;97973.22;;;8.15;68.53
49729;BME280;66333;49.798;10.968;2023-02-22T09:45:33;97963.91;;;8.13;68.67
49729;BME280;66333;49.798;10.968;2023-02-22T09:48:05;97966.38;;;8.14;68.59
49729;BME280;66333;49.798;10.968;2023-02-22T09:50:36;97967.19;;;8.15;68.43
49729;BME280;66333;49.798;10.968;2023-02-22T09:53:06;97965.25;;;8.17;68.69
49729;BME280;66333;49.798;10.968;2023-02-22T09:55:38;97959.22;;;8.16;68.70
49729;BME280;66333;49.798;10.968;2023-02-22T09:58:13;97960.03;;;8.17;68.68
49729;BME280;66333;49.798;10.968;2023-02-22T10:00:45;97959.81;;;8.28;68.69
49729;BME280;66333;49.798;10.968;2023-02-22T10:03:22;97955.81;;;8.43;68.37
49729;BME280;66333;49.798;10.968;2023-02-22T10:05:54;97954.16;;;8.42;68.12
49729;BME280;66333;49.798;10.968;2023-02-22T10:08:27;97953.66;;;8.39;68.59
49729;BME280;66333;49.798;10.968;2023-02-22T10:11:04;97949.50;;;8.36;68.79
49729;BME280;66333;49.798;10.968;2023-02-22T10:13:40;97949.25;;;8.39;68.76
49729;BME280;66333;49.798;10.968;2023-02-22T10:16:19;97948.41;;;8.39;69.29
49729;BME280;66333;49.798;10.968;2023-02-22T10:19:18;97950.06;;;8.40;69.72
49729;BME280;66333;49.798;10.968;2023-02-22T10:21:58;97943.13;;;8.48;69.04
49729;BME280;66333;49.798;10.968;2023-02-22T10:24:36;97946.66;;;8.57;68.95
49729;BME280;66333;49.798;10.968;2023-02-22T10:27:06;97950.44;;;8.63;69.05
49729;BME280;66333;49.798;10.968;2023-02-22T10:29:40;97943.31;;;8.65;69.18
49729;BME280;66333;49.798;10.968;2023-02-22T10:32:12;97943.50;;;8.71;68.95
49729;BME280;66333;49.798;10.968;2023-02-22T10:34:45;97939.41;;;8.69;69.54
49729;BME280;66333;49.798;10.968;2023-02-22T10:37:20;97940.16;;;8.79;69.84
49729;BME280;66333;49.798;10.968;2023-02-22T10:39:48;97934.66;;;8.82;69.78
49729;BME280;66333;49.798;10.968;2023-02-22T10:42:18;97936.56;;;8.80;69.42
49729;BME280;66333;49.798;10.968;2023-02-22T10:44:48;97936.38;;;8.91;69.94
49729;BME280;66333;49.798;10.968;2023-02-22T10:47:14;97937.50;;;9.07;70.35
49729;BME280;66333;49.798;10.968;2023-02-22T10:49:46;97933.91;;;9.08;69.16
49729;BME280;66333;49.798;10.968;2023-02-22T10:52:18;97932.19;;;8.98;69.64
49729;BME280;66333;49.798;10.968;2023-02-22T10:54:49;97926.91;;;8.90;69.88
49729;BME280;66333;49.798;10.968;2023-02-22T10:57:19;97927.50;;;8.84;70.35
49729;BME280;66333;49.798;10.968;2023-02-22T10:59:47;97919.25;;;8.79;70.18
49729;BME280;66333;49.798;10.968;2023-02-22T11:02:18;97921.22;;;8.77;69.93
49729;BME280;66333;49.798;10.968;2023-02-22T11:04:48;97914.34;;;8.76;69.74
49729;BME280;66333;49.798;10.968;2023-02-22T11:07:23;97918.75;;;8.75;69.96
49729;BME280;66333;49.798;10.968;2023-02-22T11:09:53;97917.94;;;8.75;69.91
49729;BME280;66333;49.798;10.968;2023-02-22T11:12:25;97912.72;;;8.75;69.79
49729;BME280;66333;49.798;10.968;2023-02-22T11:14:52;97911.91;;;8.74;69.78
49729;BME280;66333;49.798;10.968;2023-02-22T11:17:26;97906.66;;;8.74;69.84
49729;BME280;66333;49.798;10.968;2023-02-22T11:19:56;97898.69;;;8.76;69.72
49729;BME280;66333;49.798;10.968;2023-02-22T11:22:25;97891.81;;;8.75;69.65
49729;BME280;66333;49.798;10.968;2023-02-22T11:24:54;97896.72;;;8.78;69.58
49729;BME280;66333;49.798;10.968;2023-02-22T11:27:28;97881.06;;;8.78;69.55
49729;BME280;66333;49.798;10.968;2023-02-22T11:30:05;97883.00;;;8.76;69.62
49729;BME280;66333;49.798;10.968;2023-02-22T11:32:33;97884.66;;;8.77;69.56
49729;BME280;66333;49.798;10.968;2023-02-22T11:35:18;97877.47;;;8.79;69.34
49729;BME280;66333;49.798;10.968;2023-02-22T11:37:45;97879.97;;;8.81;69.38
49729;BME280;66333;49.798;10.968;2023-02-22T11:40:14;97871.28;;;8.80;69.66
49729;BME280;66333;49.798;10.968;2023-02-22T11:42:44;97872.13;;;8.81;69.53
49729;BME280;66333;49.798;10.968;2023-02-22T11:45:12;97866.75;;;8.82;69.54
49729;BME280;66333;49.798;10.968;2023-02-22T11:47:51;97860.69;;;8.82;69.26
49729;BME280;66333;49.798;10.968;2023-02-22T11:50:30;97868.38;;;8.83;69.50
49729;BME280;66333;49.798;10.968;2023-02-22T11:53:16;97858.75;;;8.84;69.41
49729;BME280;66333;49.798;10.968;2023-02-22T11:55:52;97852.38;;;8.86;69.25
49729;BME280;66333;49.798;10.968;2023-02-22T11:58:31;97862.03;;;8.86;69.49
49729;BME280;66333;49.798;10.968;2023-02-22T12:01:05;97849.63;;;8.88;69.37
49729;BME280;66333;49.798;10.968;2023-02-22T12:03:57;97846.88;;;8.89;69.42
49729;BME280;66333;49.798;10.968;2023-02-22T12:06:37;97841.66;;;8.89;69.43
49729;BME280;66333;49.798;10.968;2023-02-22T12:09:11;97842.31;;;8.91;69.25
49729;BME280;66333;49.798;10.968;2023-02-22T12:11:47;97840.53;;;8.92;69.44
49729;BME280;66333;49.798;10.968;2023-02-22T12:14:23;97836.13;;;8.92;69.39
49729;BME280;66333;49.798;10.968;2023-02-22T12:17:06;97833.19;;;8.95;69.41
49729;BME280;66333;49.798;10.968;2023-02-22T12:19:37;97826.16;;;8.96;69.36
49729;BME280;66333;49.798;10.968;2023-02-22T12:22:07;97830.28;;;8.98;69.37
49729;BME280;66333;49.798;10.968;2023-02-22T12:24:37;97821.47;;;8.99;69.31
49729;BME280;66333;49.798;10.968;2023-02-22T12:27:08;97823.09;;;9.00;69.38
49729;BME280;66333;49.798;10.968;2023-02-22T12:29:38;97814.28;;;9.01;69.42
49729;BME280;66333;49.798;10.968;2023-02-22T12:32:11;97822.78;;;9.03;69.54
49729;BME280;66333;49.798;10.968;2023-02-22T12:34:44;97820.84;;;9.05;69.28
49729;BME280;66333;49.798;10.968;2023-02-22T12:37:17;97815.31;;;9.09;69.34
49729;BME280;66333;49.798;10.968;2023-02-22T12:39:52;97819.41;;;9.37;70.77
49729;BME280;66333;49.798;10.968;2023-02-22T12:42:23;97819.41;;;9.37;69.75
49729;BME280;66333;49.798;10.968;2023-02-22T12:44:53;97815.63;;;9.31;70.45
49729;BME280;66333;49.798;10.968;2023-02-22T12:47:26;97809.53;;;9.23;70.85
49729;BME280;66333;49.798;10.968;2023-02-22T12:49:58;97807.22;;;9.20;70.49
49729;BME280;66333;49.798;10.968;2023-02-22T12:52:39;97811.63;;;9.19;70.25
49729;BME280;66333;49.798;10.968;2023-02-22T12:55:11;97803.78;;;9.19;70.02
49729;BME280;66333;49.798;10.968;2023-02-22T12:57:43;97800.03;;;9.22;69.98
49729;BME280;66333;49.798;10.968;2023-02-22T13:00:16;97800.72;;;9.24;69.97
49729;BME280;66333;49.798;10.968;2023-02-22T13:02:53;97801.69;;;9.23;70.10
49729;BME280;66333;49.798;10.968;2023-02-22T13:05:21;97788.47;;;9.24;69.88
49729;BME280;66333;49.798;10.968;2023-02-22T13:07:59;97791.91;;;9.25;69.81
49729;BME280;66333;49.798;10.968;2023-02-22T13:10:38;97790.91;;;9.26;70.13
49729;BME280;66333;49.798;10.968;2023-02-22T13:13:14;97788.97;;;9.28;69.76
49729;BME280;66333;49.798;10.968;2023-02-22T13:15:45;97785.38;;;9.29;69.79
49729;BME280;66333;49.798;10.968;2023-02-22T13:18:22;97777.53;;;9.29;69.97
49729;BME280;66333;49.798;10.968;2023-02-22T13:20:53;97779.03;;;9.31;69.66